createdAt,value
2023-08-11T00:02:00.213Z,11.90
2023-08-11T00:04:27.052Z,15.27
2023-08-11T00:06:54.378Z,15.55
2023-08-11T00:09:21.211Z,14.15
2023-08-11T00:11:48.231Z,13.85
2023-08-11T00:14:15.110Z,16.17
2023-08-11T00:16:41.946Z,13.80
2023-08-11T00:19:08.994Z,13.95
2023-08-11T00:21:35.857Z,12.15
2023-08-11T00:24:02.706Z,11.25
2023-08-11T00:26:31.646Z,14.48
2023-08-11T00:28:58.551Z,14.32
2023-08-11T00:31:25.439Z,14.45
2023-08-11T00:33:53.017Z,14.73
2023-08-11T00:38:49.784Z,16.55
2023-08-11T00:41:17.630Z,14.15
2023-08-11T00:43:45.012Z,11.23
2023-08-11T00:46:13.869Z,12.40
2023-08-11T00:48:43.003Z,10.95
2023-08-11T00:51:14.443Z,14.80
2023-08-11T00:53:42.974Z,12.40
2023-08-11T00:56:10.114Z,13.07
2023-08-11T00:58:38.732Z,12.85
2023-08-11T01:01:05.906Z,13.38
2023-08-11T01:03:33.226Z,16.08
2023-08-11T01:06:14.857Z,14.45
2023-08-11T01:09:01.377Z,13.10
2023-08-11T01:11:32.192Z,12.45
2023-08-11T01:14:10.639Z,13.90
2023-08-11T01:16:38.332Z,11.93
2023-08-11T01:19:07.927Z,14.38
2023-08-11T01:21:37.365Z,13.65
2023-08-11T01:24:05.067Z,12.60
2023-08-11T01:26:32.651Z,13.50
2023-08-11T01:28:59.459Z,15.55
2023-08-11T01:31:26.804Z,18.80
2023-08-11T01:33:53.845Z,13.38
2023-08-11T01:36:20.627Z,14.48
2023-08-11T01:38:47.974Z,14.77
2023-08-11T01:41:15.908Z,12.98
2023-08-11T01:43:45.259Z,15.48
2023-08-11T01:46:12.508Z,13.93
2023-08-11T01:48:40.617Z,15.93
2023-08-11T01:51:08.383Z,11.82
2023-08-11T01:53:35.221Z,14.10
2023-08-11T01:56:03.107Z,10.60
2023-08-11T01:58:30.208Z,11.95
2023-08-11T02:00:57.773Z,12.43
2023-08-11T02:03:25.743Z,11.63
2023-08-11T02:05:52.704Z,12.93
2023-08-11T02:08:19.874Z,12.30
2023-08-11T02:10:46.807Z,12.85
2023-08-11T02:13:13.855Z,15.95
2023-08-11T02:15:41.473Z,14.95
2023-08-11T02:18:08.710Z,14.48
2023-08-11T02:20:35.902Z,15.35
2023-08-11T02:23:03.154Z,13.77
2023-08-11T02:25:29.978Z,14.10
2023-08-11T02:27:56.785Z,15.15
2023-08-11T02:30:23.764Z,16.45
2023-08-11T02:32:51.589Z,14.65
2023-08-11T02:35:18.909Z,16.77
2023-08-11T02:37:46.340Z,14.15
2023-08-11T02:40:13.244Z,13.07
2023-08-11T02:42:44.597Z,13.57
2023-08-11T02:45:12.426Z,20.05
2023-08-11T02:47:40.840Z,14.75
2023-08-11T02:52:36.161Z,17.38
2023-08-11T02:55:04.710Z,17.83
2023-08-11T02:57:32.507Z,15.60
2023-08-11T02:59:59.548Z,15.00
2023-08-11T03:02:26.541Z,14.77
2023-08-11T03:04:53.881Z,13.85
2023-08-11T03:07:20.807Z,14.35
2023-08-11T03:09:47.629Z,14.18
2023-08-11T03:12:14.577Z,14.05
2023-08-11T03:14:43.069Z,16.38
2023-08-11T03:17:11.306Z,14.00
2023-08-11T03:19:39.007Z,15.88
2023-08-11T03:22:06.339Z,16.27
2023-08-11T03:24:33.680Z,15.95
2023-08-11T03:27:00.558Z,15.35
2023-08-11T03:29:27.748Z,14.50
2023-08-11T03:31:56.215Z,14.93
2023-08-11T03:34:23.369Z,17.33
2023-08-11T03:36:50.155Z,16.20
2023-08-11T03:39:17.488Z,16.48
2023-08-11T03:41:44.252Z,16.55
2023-08-11T03:44:11.471Z,17.65
2023-08-11T03:46:38.669Z,16.10
2023-08-11T03:49:08.078Z,16.35
2023-08-11T03:51:35.796Z,16.17
2023-08-11T03:54:03.627Z,15.75
2023-08-11T03:56:33.684Z,16.52
2023-08-11T03:59:00.563Z,13.35
2023-08-11T04:01:27.415Z,15.60
2023-08-11T04:03:54.258Z,13.63
2023-08-11T04:06:23.140Z,14.63
2023-08-11T04:08:49.922Z,14.75
2023-08-11T04:11:17.116Z,15.50
2023-08-11T04:13:45.016Z,17.05
2023-08-11T04:16:12.789Z,15.60
2023-08-11T04:18:39.588Z,14.43
2023-08-11T04:21:06.919Z,14.95
2023-08-11T04:23:34.038Z,12.82
2023-08-11T04:26:00.831Z,16.65
2023-08-11T04:28:27.958Z,15.15
2023-08-11T04:30:56.549Z,13.73
2023-08-11T04:33:23.650Z,14.93
2023-08-11T04:35:51.098Z,16.42
2023-08-11T04:38:18.778Z,17.10
2023-08-11T04:40:45.742Z,16.20
2023-08-11T04:43:13.065Z,15.90
2023-08-11T04:45:42.699Z,14.77
2023-08-11T04:50:42.103Z,14.75
2023-08-11T04:53:09.595Z,16.23
2023-08-11T04:55:40.843Z,14.38
2023-08-11T04:58:07.883Z,15.40
2023-08-11T05:00:35.301Z,20.42
2023-08-11T05:03:02.282Z,17.20
2023-08-11T05:05:29.206Z,17.77
2023-08-11T05:07:56.044Z,16.38
2023-08-11T05:10:22.797Z,16.02
2023-08-11T05:12:50.506Z,19.30
2023-08-11T05:15:17.397Z,16.08
2023-08-11T05:17:44.275Z,14.25
2023-08-11T05:20:11.567Z,16.23
2023-08-11T05:22:38.561Z,17.58
2023-08-11T05:25:06.017Z,15.43
2023-08-11T05:27:32.998Z,19.40
2023-08-11T05:29:59.928Z,15.27
2023-08-11T05:32:27.374Z,15.48
2023-08-11T05:34:56.599Z,18.80
2023-08-11T05:37:25.821Z,17.60
2023-08-11T05:39:53.540Z,17.42
2023-08-11T05:42:20.865Z,19.48
2023-08-11T05:44:48.394Z,16.27
2023-08-11T05:47:15.210Z,14.80
2023-08-11T05:49:42.032Z,16.55
2023-08-11T05:52:08.854Z,16.75
2023-08-11T05:54:35.728Z,15.70
2023-08-11T05:57:02.608Z,18.60
2023-08-11T05:59:29.372Z,15.93
2023-08-11T06:01:56.273Z,13.93
2023-08-11T06:04:23.055Z,17.40
2023-08-11T06:06:49.842Z,15.88
2023-08-11T06:09:16.681Z,15.27
2023-08-11T06:11:43.447Z,15.88
2023-08-11T06:14:10.288Z,18.13
2023-08-11T06:16:37.049Z,18.85
2023-08-11T06:19:04.077Z,17.75
2023-08-11T06:21:31.056Z,20.40
2023-08-11T06:23:57.963Z,18.70
2023-08-11T06:26:24.804Z,18.08
2023-08-11T06:28:51.653Z,17.00
2023-08-11T06:31:21.510Z,16.73
2023-08-11T06:33:48.828Z,18.42
2023-08-11T06:36:15.787Z,19.52
2023-08-11T06:38:43.807Z,15.65
2023-08-11T06:41:10.704Z,19.55
2023-08-11T06:43:37.658Z,15.45
2023-08-11T06:46:04.534Z,13.05
2023-08-11T06:48:31.606Z,17.38
2023-08-11T06:50:58.452Z,18.83
2023-08-11T06:53:25.775Z,20.65
2023-08-11T06:55:53.278Z,19.98
2023-08-11T06:58:20.878Z,15.68
2023-08-11T07:03:15.865Z,13.70
2023-08-11T07:05:42.677Z,13.63
2023-08-11T07:08:09.716Z,17.63
2023-08-11T07:10:37.295Z,14.90
2023-08-11T07:13:04.280Z,16.92
2023-08-11T07:15:31.085Z,16.55
2023-08-11T07:17:57.989Z,12.25
2023-08-11T07:20:24.881Z,13.75
2023-08-11T07:22:51.830Z,15.93
2023-08-11T07:25:18.652Z,12.88
2023-08-11T07:27:45.470Z,15.20
2023-08-11T07:30:12.599Z,16.77
2023-08-11T07:32:39.577Z,16.85
2023-08-11T07:35:06.926Z,12.63
2023-08-11T07:37:33.768Z,17.45
2023-08-11T07:40:00.804Z,13.60
2023-08-11T07:42:27.683Z,16.65
2023-08-11T07:44:54.474Z,15.77
2023-08-11T07:47:21.936Z,13.50
2023-08-11T07:49:48.807Z,11.18
2023-08-11T07:52:15.707Z,10.98
2023-08-11T07:54:42.737Z,11.85
2023-08-11T07:57:10.278Z,10.38
2023-08-11T07:59:37.413Z,13.00
2023-08-11T08:02:05.266Z,12.85
2023-08-11T08:04:32.286Z,11.50
2023-08-11T08:06:59.060Z,12.18
2023-08-11T08:09:26.445Z,10.88
2023-08-11T08:11:53.276Z,10.18
2023-08-11T08:14:20.265Z,10.00
2023-08-11T08:16:47.141Z,11.50
2023-08-11T08:19:15.997Z,9.93
2023-08-11T08:21:43.722Z,8.68
2023-08-11T08:24:10.844Z,10.23
2023-08-11T08:26:37.875Z,9.20
2023-08-11T08:29:05.244Z,9.93
2023-08-11T08:31:32.120Z,10.45
2023-08-11T08:33:59.267Z,12.52
2023-08-11T08:36:26.824Z,10.25
2023-08-11T08:38:54.028Z,12.20
2023-08-11T08:41:25.008Z,12.27
2023-08-11T08:43:54.889Z,13.35
2023-08-11T08:46:27.243Z,12.82
2023-08-11T08:49:03.196Z,12.32
2023-08-11T08:51:31.306Z,10.50
2023-08-11T08:53:58.253Z,12.25
2023-08-11T08:56:26.365Z,11.68
2023-08-11T08:58:53.355Z,13.15
2023-08-11T09:01:20.619Z,9.85
2023-08-11T09:03:47.786Z,9.77
2023-08-11T09:06:15.939Z,8.13
2023-08-11T09:11:09.995Z,11.43
2023-08-11T09:13:39.292Z,10.38
2023-08-11T09:16:06.597Z,11.98
2023-08-11T09:18:34.043Z,10.18
2023-08-11T09:21:03.526Z,9.48
2023-08-11T09:23:30.906Z,11.38
2023-08-11T09:25:57.728Z,10.75
2023-08-11T09:28:24.774Z,11.05
2023-08-11T09:30:51.788Z,8.23
2023-08-11T09:33:19.339Z,13.15
2023-08-11T09:35:46.373Z,11.32
2023-08-11T09:38:13.424Z,7.28
2023-08-11T09:40:42.271Z,10.88
2023-08-11T09:43:11.955Z,8.15
2023-08-11T09:45:39.450Z,8.75
2023-08-11T09:48:06.907Z,9.75
2023-08-11T09:50:36.733Z,8.68
2023-08-11T09:53:06.471Z,16.10
2023-08-11T09:55:35.828Z,32.72
2023-08-11T09:58:04.316Z,23.67
2023-08-11T10:00:32.186Z,25.13
2023-08-11T10:03:11.719Z,34.90
2023-08-11T10:05:43.289Z,30.98
2023-08-11T10:08:20.664Z,25.08
2023-08-11T10:10:47.893Z,14.68
2023-08-11T10:13:23.853Z,27.67
2023-08-11T10:15:53.080Z,16.88
2023-08-11T10:18:21.607Z,14.93
2023-08-11T10:20:51.337Z,17.33
2023-08-11T10:23:21.386Z,13.65
2023-08-11T10:25:49.499Z,9.90
2023-08-11T10:30:44.580Z,14.75
2023-08-11T10:33:11.727Z,9.50
2023-08-11T10:35:38.723Z,9.40
2023-08-11T10:38:05.977Z,9.50
2023-08-11T10:40:39.983Z,9.45
2023-08-11T10:43:07.520Z,8.32
2023-08-11T10:45:36.235Z,6.18
2023-08-11T10:48:10.621Z,7.82
2023-08-11T10:50:39.205Z,7.45
2023-08-11T10:53:22.681Z,7.15
2023-08-11T10:56:03.645Z,7.00
2023-08-11T10:58:33.988Z,7.38
2023-08-11T11:01:01.213Z,7.53
2023-08-11T11:03:28.184Z,9.55
2023-08-11T11:05:55.022Z,10.15
2023-08-11T11:08:21.932Z,8.43
2023-08-11T11:10:50.915Z,8.18
2023-08-11T11:13:18.521Z,8.27
2023-08-11T11:15:45.803Z,7.70
2023-08-11T11:18:12.847Z,6.78
2023-08-11T11:20:39.760Z,8.98
2023-08-11T11:23:07.066Z,9.00
2023-08-11T11:25:34.636Z,8.95
2023-08-11T11:28:01.892Z,7.55
2023-08-11T11:30:28.876Z,7.03
2023-08-11T11:32:55.898Z,8.05
2023-08-11T11:35:24.898Z,7.63
2023-08-11T11:37:52.933Z,8.52
2023-08-11T11:40:19.991Z,6.50
2023-08-11T11:42:48.555Z,6.15
2023-08-11T11:45:17.377Z,6.22
2023-08-11T11:47:47.349Z,7.82
2023-08-11T11:50:14.286Z,7.68
2023-08-11T11:52:47.868Z,7.75
2023-08-11T11:55:14.806Z,5.40
2023-08-11T11:57:41.665Z,6.05
2023-08-11T12:00:17.819Z,6.05
2023-08-11T12:02:45.848Z,7.28
2023-08-11T12:07:41.377Z,6.53
2023-08-11T12:10:08.479Z,5.93
2023-08-11T12:12:35.381Z,5.63
2023-08-11T12:15:04.550Z,5.50
2023-08-11T12:17:35.618Z,6.40
2023-08-11T12:20:09.746Z,6.47
2023-08-11T12:25:04.507Z,5.70
2023-08-11T12:27:31.686Z,4.90
2023-08-11T12:29:58.645Z,5.53
2023-08-11T12:32:25.546Z,7.00
2023-08-11T12:34:52.892Z,5.63
2023-08-11T12:37:19.674Z,6.13
2023-08-11T12:39:46.483Z,6.55
2023-08-11T12:42:13.413Z,6.43
2023-08-11T12:44:40.633Z,6.88
2023-08-11T12:47:07.704Z,5.88
2023-08-11T12:49:34.540Z,7.65
2023-08-11T12:52:01.357Z,7.22
2023-08-11T12:54:28.211Z,6.57
2023-08-11T12:56:55.064Z,7.22
2023-08-11T12:59:21.936Z,6.30
2023-08-11T13:01:48.823Z,5.82
2023-08-11T13:04:15.788Z,5.65
2023-08-11T13:06:42.619Z,8.35
2023-08-11T13:09:09.444Z,9.23
2023-08-11T13:11:36.283Z,6.57
2023-08-11T13:14:03.677Z,6.05
2023-08-11T13:16:30.794Z,6.63
2023-08-11T13:18:57.708Z,7.68
2023-08-11T13:21:24.581Z,7.13
2023-08-11T13:23:51.514Z,10.05
2023-08-11T13:26:18.435Z,7.28
2023-08-11T13:28:45.299Z,10.30
2023-08-11T13:31:12.335Z,7.57
2023-08-11T13:33:39.202Z,8.90
2023-08-11T13:36:06.328Z,10.05
2023-08-11T13:38:33.259Z,9.00
2023-08-11T13:41:01.933Z,8.88
2023-08-11T13:43:28.849Z,9.38
2023-08-11T13:45:55.898Z,8.52
2023-08-11T13:48:25.001Z,7.25
2023-08-11T13:50:52.871Z,7.45
2023-08-11T13:53:19.879Z,8.38
2023-08-11T13:55:47.174Z,8.45
2023-08-11T13:58:13.960Z,7.60
2023-08-11T14:00:41.247Z,7.32
2023-08-11T14:03:08.165Z,8.60
2023-08-11T14:05:35.907Z,8.70
2023-08-11T14:08:02.742Z,7.82
2023-08-11T14:10:29.549Z,7.93
2023-08-11T14:12:56.319Z,7.53
2023-08-11T14:15:23.140Z,8.27
2023-08-11T14:17:49.959Z,8.32
2023-08-11T14:20:16.753Z,9.13
2023-08-11T14:22:43.549Z,7.78
2023-08-11T14:25:10.361Z,10.18
2023-08-11T14:27:37.184Z,9.50
2023-08-11T14:30:04.403Z,10.30
2023-08-11T14:32:31.566Z,7.95
2023-08-11T14:34:58.648Z,8.30
2023-08-11T14:37:25.542Z,9.57
2023-08-11T14:39:52.655Z,8.07
2023-08-11T14:42:19.607Z,8.65
2023-08-11T14:44:46.373Z,7.90
2023-08-11T14:47:16.068Z,10.00
2023-08-11T14:49:45.978Z,9.45
2023-08-11T14:52:14.630Z,10.90
2023-08-11T14:54:42.552Z,9.50
2023-08-11T14:57:10.989Z,10.73
2023-08-11T14:59:38.805Z,8.90
2023-08-11T15:02:05.775Z,8.55
2023-08-11T15:04:32.528Z,9.93
2023-08-11T15:06:59.298Z,11.55
2023-08-11T15:09:26.075Z,10.52
2023-08-11T15:11:52.900Z,9.18
2023-08-11T15:14:19.744Z,8.80
2023-08-11T15:16:46.651Z,8.95
2023-08-11T15:19:13.632Z,8.75
2023-08-11T15:21:40.734Z,11.32
2023-08-11T15:24:08.347Z,9.93
2023-08-11T15:26:35.256Z,9.75
2023-08-11T15:29:02.061Z,6.95
2023-08-11T15:31:29.093Z,10.15
2023-08-11T15:33:55.844Z,8.77
2023-08-11T15:36:22.671Z,8.60
2023-08-11T15:38:51.852Z,8.98
2023-08-11T15:41:19.842Z,7.25
2023-08-11T15:43:46.911Z,8.52
2023-08-11T15:46:13.836Z,10.38
2023-08-11T15:48:40.747Z,8.68
2023-08-11T15:51:07.879Z,7.88
2023-08-11T15:53:34.784Z,9.32
2023-08-11T15:56:02.507Z,8.82
2023-08-11T15:58:29.348Z,8.60
2023-08-11T16:00:56.374Z,8.85
2023-08-11T16:03:23.569Z,9.20
2023-08-11T16:05:50.471Z,9.20
2023-08-11T16:08:17.330Z,8.57
2023-08-11T16:10:45.288Z,8.52
2023-08-11T16:13:12.183Z,11.00
2023-08-11T16:15:39.330Z,9.20
2023-08-11T16:18:10.560Z,8.73
2023-08-11T16:20:38.028Z,9.32
2023-08-11T16:23:05.370Z,6.72
2023-08-11T16:25:32.242Z,7.63
2023-08-11T16:28:00.526Z,9.80
2023-08-11T16:32:57.644Z,7.32
2023-08-11T16:35:24.746Z,7.18
2023-08-11T16:37:51.541Z,7.72
2023-08-11T16:40:18.369Z,8.40
2023-08-11T16:42:45.344Z,11.30
2023-08-11T16:45:12.186Z,8.88
2023-08-11T16:47:39.060Z,7.45
2023-08-11T16:50:06.493Z,8.00
2023-08-11T16:52:33.412Z,9.75
2023-08-11T16:55:00.319Z,11.57
2023-08-11T16:57:30.269Z,8.13
2023-08-11T16:59:57.055Z,7.30
2023-08-11T17:02:23.900Z,8.85
2023-08-11T17:04:51.180Z,8.70
2023-08-11T17:07:18.361Z,8.10
2023-08-11T17:09:45.101Z,6.90
2023-08-11T17:12:12.569Z,6.60
2023-08-11T17:14:39.741Z,5.63
2023-08-11T17:17:06.656Z,7.63
2023-08-11T17:19:34.073Z,8.48
2023-08-11T17:22:01.759Z,11.90
2023-08-11T17:24:28.825Z,9.75
2023-08-11T17:26:55.784Z,9.68
2023-08-11T17:29:22.652Z,8.43
2023-08-11T17:31:49.594Z,6.28
2023-08-11T17:34:16.560Z,10.18
2023-08-11T17:36:43.400Z,7.90
2023-08-11T17:39:11.878Z,7.95
2023-08-11T17:41:39.120Z,8.77
2023-08-11T17:44:06.176Z,6.88
2023-08-11T17:46:33.155Z,9.20
2023-08-11T17:49:00.086Z,7.50
2023-08-11T17:51:26.918Z,7.60
2023-08-11T17:54:08.241Z,8.13
2023-08-11T17:56:37.115Z,8.23
2023-08-11T17:59:04.265Z,7.80
2023-08-11T18:01:31.684Z,6.57
2023-08-11T18:04:02.855Z,7.00
2023-08-11T18:09:01.581Z,9.00
2023-08-11T18:11:29.472Z,9.15
2023-08-11T18:13:57.520Z,5.93
2023-08-11T18:16:24.523Z,7.38
2023-08-11T18:18:51.563Z,5.93
2023-08-11T18:21:20.909Z,4.95
2023-08-11T18:23:48.411Z,7.93
2023-08-11T18:26:17.022Z,9.40
2023-08-11T18:28:43.935Z,6.38
2023-08-11T18:31:10.840Z,6.95
2023-08-11T18:33:37.952Z,4.20
2023-08-11T18:36:05.147Z,5.70
2023-08-11T18:38:32.293Z,5.88
2023-08-11T18:40:59.537Z,4.60
2023-08-11T18:43:26.590Z,6.90
2023-08-11T18:45:53.463Z,8.23
2023-08-11T18:48:20.282Z,7.18
2023-08-11T18:50:47.286Z,5.78
2023-08-11T18:53:14.154Z,6.90
2023-08-11T18:55:40.954Z,8.75
2023-08-11T18:58:08.065Z,6.95
2023-08-11T19:00:34.926Z,6.97
2023-08-11T19:03:01.882Z,7.05
2023-08-11T19:05:29.315Z,4.85
2023-08-11T19:07:56.067Z,6.53
2023-08-11T19:10:29.062Z,6.53
2023-08-11T19:12:56.039Z,5.78
2023-08-11T19:15:23.966Z,9.23
2023-08-11T19:17:50.839Z,4.32
2023-08-11T19:20:17.674Z,4.75
2023-08-11T19:22:44.550Z,7.82
2023-08-11T19:25:12.608Z,6.25
2023-08-11T19:30:07.825Z,4.80
2023-08-11T19:32:36.021Z,7.00
2023-08-11T19:37:30.076Z,4.30
2023-08-11T19:39:56.937Z,6.53
2023-08-11T19:42:23.743Z,6.70
2023-08-11T19:44:50.551Z,11.10
2023-08-11T19:47:17.490Z,4.35
2023-08-11T19:49:44.332Z,3.33
2023-08-11T19:52:12.148Z,4.18
2023-08-11T19:54:39.229Z,6.82
2023-08-11T19:57:06.385Z,5.82
2023-08-11T19:59:33.333Z,4.43
2023-08-11T20:02:00.101Z,3.05
2023-08-11T20:04:26.935Z,4.40
2023-08-11T20:06:53.900Z,4.68
2023-08-11T20:09:23.297Z,5.18
2023-08-11T20:11:51.978Z,2.63
2023-08-11T20:14:22.128Z,4.50
2023-08-11T20:16:50.605Z,3.40
2023-08-11T20:19:18.859Z,4.78
2023-08-11T20:24:13.126Z,3.45
2023-08-11T20:26:40.012Z,4.00
2023-08-11T20:29:06.986Z,3.80
2023-08-11T20:31:34.159Z,4.05
2023-08-11T20:34:01.378Z,3.58
2023-08-11T20:36:28.419Z,3.55
2023-08-11T20:38:55.190Z,2.47
2023-08-11T20:41:22.176Z,3.53
2023-08-11T20:43:49.711Z,3.10
2023-08-11T20:46:16.904Z,4.13
2023-08-11T20:48:43.903Z,3.35
2023-08-11T20:51:11.973Z,2.42
2023-08-11T20:53:39.470Z,3.63
2023-08-11T20:56:06.820Z,3.22
2023-08-11T20:58:33.565Z,2.20
2023-08-11T21:01:00.686Z,4.07
2023-08-11T21:03:27.661Z,3.95
2023-08-11T21:05:55.162Z,3.70
2023-08-11T21:08:22.011Z,2.92
2023-08-11T21:10:49.608Z,2.85
2023-08-11T21:13:16.574Z,5.53
2023-08-11T21:15:43.416Z,4.60
2023-08-11T21:18:11.046Z,4.63
2023-08-11T21:20:38.430Z,3.08
2023-08-11T21:23:06.323Z,5.75
2023-08-11T21:25:33.627Z,5.10
2023-08-11T21:28:00.780Z,5.50
2023-08-11T21:30:27.601Z,4.35
2023-08-11T21:32:54.438Z,3.65
2023-08-11T21:35:21.916Z,2.90
2023-08-11T21:37:49.180Z,2.25
2023-08-11T21:40:16.226Z,4.07
2023-08-11T21:42:43.903Z,5.75
2023-08-11T21:45:11.101Z,4.68
2023-08-11T21:47:37.996Z,2.90
2023-08-11T21:50:05.542Z,3.65
2023-08-11T21:52:32.366Z,2.60
2023-08-11T21:54:59.400Z,4.95
2023-08-11T21:57:26.230Z,2.65
2023-08-11T21:59:53.004Z,3.42
2023-08-11T22:02:19.958Z,3.65
2023-08-11T22:04:46.958Z,2.70
2023-08-11T22:07:14.327Z,4.28
2023-08-11T22:09:42.758Z,3.35
2023-08-11T22:12:11.992Z,4.10
2023-08-11T22:14:39.628Z,3.25
2023-08-11T22:17:06.748Z,3.20
2023-08-11T22:19:36.728Z,3.72
2023-08-11T22:22:06.700Z,3.40
2023-08-11T22:24:41.145Z,4.88
2023-08-11T22:27:10.368Z,3.67
2023-08-11T22:29:37.730Z,4.00
2023-08-11T22:32:04.966Z,3.65
2023-08-11T22:34:31.809Z,5.28
2023-08-11T22:36:58.582Z,2.58
2023-08-11T22:39:25.473Z,4.10
2023-08-11T22:41:52.217Z,4.65
2023-08-11T22:44:18.985Z,6.22
2023-08-11T22:46:45.825Z,4.57
2023-08-11T22:49:12.821Z,4.38
2023-08-11T22:51:39.654Z,5.80
2023-08-11T22:54:06.531Z,5.90
2023-08-11T22:56:33.430Z,5.20
2023-08-11T22:59:00.352Z,4.30
2023-08-11T23:01:27.321Z,3.75
2023-08-11T23:03:54.283Z,4.03
2023-08-11T23:06:21.279Z,6.25
2023-08-11T23:08:48.076Z,4.70
2023-08-11T23:11:14.897Z,3.97
2023-08-11T23:13:41.653Z,4.70
2023-08-11T23:16:08.550Z,7.82
2023-08-11T23:18:35.382Z,4.55
2023-08-11T23:21:02.331Z,4.38
2023-08-11T23:23:29.111Z,4.70
2023-08-11T23:25:56.522Z,6.00
2023-08-11T23:28:25.136Z,6.57
2023-08-11T23:30:52.259Z,4.70
2023-08-11T23:33:19.809Z,7.07
2023-08-11T23:35:46.712Z,5.57
2023-08-11T23:38:13.624Z,5.97
2023-08-11T23:40:40.498Z,7.10
2023-08-11T23:43:07.765Z,5.20
2023-08-11T23:45:35.580Z,5.07
2023-08-11T23:48:03.064Z,6.28
2023-08-11T23:50:29.979Z,5.10
2023-08-11T23:52:56.741Z,3.65
2023-08-11T23:55:25.926Z,4.07
2023-08-11T23:57:53.009Z,6.60
